createdAt,value
2017-03-16T00:00:51.854Z,0
2017-03-16T00:01:51.259Z,0
2017-03-16T00:02:51.722Z,0
2017-03-16T00:03:51.443Z,0
2017-03-16T00:04:51.574Z,0
2017-03-16T00:05:51.379Z,0
2017-03-16T00:06:51.123Z,0
2017-03-16T00:07:51.411Z,0
2017-03-16T00:08:51.303Z,0
2017-03-16T00:09:51.302Z,0
2017-03-16T00:10:51.362Z,0
2017-03-16T00:11:51.413Z,0
2017-03-16T00:12:51.334Z,0
2017-03-16T00:13:51.429Z,0
2017-03-16T00:14:51.021Z,0
2017-03-16T00:15:51.022Z,0
2017-03-16T00:16:51.078Z,0
2017-03-16T00:17:51.135Z,0
2017-03-16T00:18:51.449Z,0
2017-03-16T00:19:51.402Z,0
2017-03-16T00:20:50.837Z,0
2017-03-16T00:21:51.516Z,0
2017-03-16T00:22:51.423Z,0
2017-03-16T00:23:51.117Z,0
2017-03-16T00:24:51.385Z,0
2017-03-16T00:25:51.179Z,0
2017-03-16T00:26:51.138Z,0
2017-03-16T00:27:51.137Z,0
2017-03-16T00:28:51.705Z,0
2017-03-16T00:29:51.717Z,0
2017-03-16T00:30:51.520Z,0
2017-03-16T00:31:51.476Z,0
2017-03-16T00:32:51.581Z,0
2017-03-16T00:33:51.225Z,0
2017-03-16T00:34:51.180Z,0
2017-03-16T00:35:51.182Z,0
2017-03-16T00:36:51.453Z,0
2017-03-16T00:37:51.455Z,0
2017-03-16T00:38:51.201Z,0
2017-03-16T00:39:51.204Z,0
2017-03-16T00:40:51.475Z,0
2017-03-16T00:41:51.269Z,0
2017-03-16T00:42:51.633Z,0
2017-03-16T00:43:50.862Z,0
2017-03-16T00:44:50.979Z,0
2017-03-16T00:45:50.879Z,0
2017-03-16T00:46:51.555Z,0
2017-03-16T00:47:51.299Z,0
2017-03-16T00:48:51.205Z,0
2017-03-16T00:49:51.210Z,0
2017-03-16T00:50:51.270Z,0
2017-03-16T00:51:51.275Z,0
2017-03-16T00:52:51.226Z,0
2017-03-16T00:53:51.280Z,0
2017-03-16T00:54:51.337Z,0
2017-03-16T00:55:51.295Z,0
2017-03-16T00:56:51.563Z,0
2017-03-16T00:57:51.352Z,0
2017-03-16T00:58:51.261Z,0
2017-03-16T00:59:51.267Z,0
2017-03-16T01:00:51.684Z,0
2017-03-16T01:01:51.740Z,0
2017-03-16T01:02:51.072Z,0
2017-03-16T01:03:51.646Z,0
2017-03-16T01:04:52.311Z,0
2017-03-16T01:05:51.663Z,0
2017-03-16T01:06:51.767Z,0
2017-03-16T01:07:51.356Z,0
2017-03-16T01:08:51.726Z,0
2017-03-16T01:09:51.685Z,0
2017-03-16T01:10:51.424Z,0
2017-03-16T01:11:51.751Z,0
2017-03-16T01:12:51.384Z,0
2017-03-16T01:13:51.753Z,0
2017-03-16T01:14:53.114Z,0
2017-03-16T01:15:51.766Z,0
2017-03-16T01:16:51.464Z,0
2017-03-16T01:17:51.813Z,0
2017-03-16T01:18:51.429Z,0
2017-03-16T01:19:52.186Z,0
2017-03-16T01:20:51.800Z,0
2017-03-16T01:21:51.275Z,0
2017-03-16T01:22:51.541Z,0
2017-03-16T01:23:51.761Z,0
2017-03-16T01:24:51.821Z,0
2017-03-16T01:25:51.777Z,0
2017-03-16T01:26:51.887Z,0
2017-03-16T01:27:51.156Z,0
2017-03-16T01:28:51.740Z,0
2017-03-16T01:29:51.800Z,0
2017-03-16T01:30:51.799Z,0
2017-03-16T01:31:51.857Z,0
2017-03-16T01:32:51.863Z,0
2017-03-16T01:33:51.453Z,0
2017-03-16T01:34:51.825Z,0
2017-03-16T01:35:51.833Z,0
2017-03-16T01:36:51.788Z,0
2017-03-16T01:37:51.579Z,0
2017-03-16T01:38:51.900Z,0
2017-03-16T01:39:51.174Z,0
2017-03-16T01:40:51.180Z,0
2017-03-16T01:41:51.809Z,0
2017-03-16T01:42:51.555Z,0
2017-03-16T01:43:51.823Z,0
2017-03-16T01:44:51.873Z,0
2017-03-16T01:45:51.934Z,0
2017-03-16T01:46:51.579Z,0
2017-03-16T01:47:51.581Z,0
2017-03-16T01:48:51.898Z,0
2017-03-16T01:49:51.859Z,0
2017-03-16T01:50:51.913Z,0
2017-03-16T01:51:51.868Z,0
2017-03-16T01:52:51.935Z,0
2017-03-16T01:53:51.579Z,0
2017-03-16T01:54:51.929Z,0
2017-03-16T01:55:51.937Z,0
2017-03-16T01:56:52.434Z,0
2017-03-16T01:57:52.001Z,0
2017-03-16T01:58:51.957Z,0
2017-03-16T01:59:51.961Z,0
2017-03-16T02:00:51.339Z,0
2017-03-16T02:01:51.609Z,0
2017-03-16T02:02:51.356Z,0
2017-03-16T02:03:51.993Z,0
2017-03-16T02:04:51.690Z,0
2017-03-16T02:05:51.417Z,0
2017-03-16T02:06:51.393Z,0
2017-03-16T02:07:52.073Z,0
2017-03-16T02:08:52.110Z,0
2017-03-16T02:09:51.752Z,0
2017-03-16T02:10:52.025Z,0
2017-03-16T02:11:51.982Z,0
2017-03-16T02:12:52.037Z,0
2017-03-16T02:13:52.085Z,0
2017-03-16T02:14:51.420Z,0
2017-03-16T02:15:52.004Z,0
2017-03-16T02:16:52.008Z,0
2017-03-16T02:17:52.794Z,0
2017-03-16T02:18:52.067Z,0
2017-03-16T02:19:51.398Z,0
2017-03-16T02:20:52.177Z,0
2017-03-16T02:21:51.830Z,0
2017-03-16T02:22:51.714Z,0
2017-03-16T02:23:51.419Z,0
2017-03-16T02:24:51.754Z,0
2017-03-16T02:25:51.841Z,0
2017-03-16T02:26:52.212Z,0
2017-03-16T02:27:52.071Z,0
2017-03-16T02:28:52.134Z,0
2017-03-16T02:29:51.768Z,0
2017-03-16T02:30:51.819Z,0
2017-03-16T02:31:51.575Z,0
2017-03-16T02:32:52.172Z,0
2017-03-16T02:33:52.097Z,0
2017-03-16T02:34:52.098Z,0
2017-03-16T02:35:51.848Z,0
2017-03-16T02:36:51.489Z,0
2017-03-16T02:37:52.168Z,0
2017-03-16T02:38:51.880Z,0
2017-03-16T02:39:51.975Z,0
2017-03-16T02:40:52.145Z,0
2017-03-16T02:41:51.934Z,0
2017-03-16T02:42:52.196Z,0
2017-03-16T02:43:52.257Z,0
2017-03-16T02:44:52.258Z,0
2017-03-16T02:45:51.852Z,0
2017-03-16T02:46:52.224Z,0
2017-03-16T02:47:51.713Z,0
2017-03-16T02:48:52.183Z,0
2017-03-16T02:49:51.982Z,0
2017-03-16T02:50:52.295Z,0
2017-03-16T02:51:52.350Z,0
2017-03-16T02:52:51.325Z,0
2017-03-16T02:53:52.306Z,0
2017-03-16T02:54:51.906Z,0
2017-03-16T02:55:52.225Z,0
2017-03-16T02:56:52.276Z,0
2017-03-16T02:57:52.281Z,0
2017-03-16T02:58:51.981Z,0
2017-03-16T02:59:52.346Z,0
2017-03-16T03:00:52.304Z,0
2017-03-16T03:01:51.943Z,0
2017-03-16T03:02:52.315Z,0
2017-03-16T03:03:52.066Z,0
2017-03-16T03:04:52.321Z,0
2017-03-16T03:05:52.423Z,0
2017-03-16T03:06:52.329Z,0
2017-03-16T03:07:52.074Z,0
2017-03-16T03:08:52.079Z,0
2017-03-16T03:09:52.398Z,0
2017-03-16T03:10:52.354Z,0
2017-03-16T03:11:52.409Z,0
2017-03-16T03:12:53.518Z,0
2017-03-16T03:13:52.062Z,0
2017-03-16T03:14:52.377Z,0
2017-03-16T03:15:52.019Z,0
2017-03-16T03:16:52.339Z,0
2017-03-16T03:17:51.820Z,0
2017-03-16T03:18:52.396Z,0
2017-03-16T03:19:51.793Z,0
2017-03-16T03:20:52.408Z,0
2017-03-16T03:21:52.467Z,0
2017-03-16T03:22:51.796Z,0
2017-03-16T03:23:52.472Z,0
2017-03-16T03:24:52.486Z,0
2017-03-16T03:25:52.176Z,0
2017-03-16T03:26:52.448Z,0
2017-03-16T03:27:51.773Z,0
2017-03-16T03:28:52.092Z,0
2017-03-16T03:29:52.509Z,0
2017-03-16T03:30:51.796Z,0
2017-03-16T03:31:52.257Z,0
2017-03-16T03:32:52.212Z,0
2017-03-16T03:33:52.488Z,0
2017-03-16T03:34:52.447Z,0
2017-03-16T03:35:52.181Z,0
2017-03-16T03:36:52.501Z,0
2017-03-16T03:37:52.694Z,0
2017-03-16T03:38:52.469Z,0
2017-03-16T03:39:52.252Z,0
2017-03-16T03:40:52.569Z,0
2017-03-16T03:41:52.529Z,0
2017-03-16T03:42:52.635Z,0
2017-03-16T03:43:52.589Z,0
2017-03-16T03:44:52.176Z,0
2017-03-16T03:45:52.656Z,0
2017-03-16T03:46:52.512Z,0
2017-03-16T03:47:52.569Z,0
2017-03-16T03:48:52.605Z,0
2017-03-16T03:49:52.728Z,0
2017-03-16T03:50:52.614Z,0
2017-03-16T03:51:52.259Z,0
2017-03-16T03:52:52.947Z,0
2017-03-16T03:53:52.285Z,0
2017-03-16T03:54:52.576Z,0
2017-03-16T03:55:52.603Z,0
2017-03-16T03:56:52.402Z,0
2017-03-16T03:57:52.678Z,0
2017-03-16T03:58:52.414Z,0
2017-03-16T03:59:52.726Z,0
2017-03-16T04:00:52.323Z,0
2017-03-16T04:01:52.645Z,0
2017-03-16T04:02:52.064Z,0
2017-03-16T04:03:52.389Z,0
2017-03-16T04:04:52.342Z,0
2017-03-16T04:05:52.628Z,0
2017-03-16T04:06:52.355Z,0
2017-03-16T04:07:52.312Z,0
2017-03-16T04:08:52.253Z,0
2017-03-16T04:09:51.693Z,0
2017-03-16T04:10:52.790Z,0
2017-03-16T04:11:52.383Z,0
2017-03-16T04:12:52.399Z,0
2017-03-16T04:13:52.763Z,0
2017-03-16T04:14:52.710Z,0
2017-03-16T04:15:52.405Z,0
2017-03-16T04:16:52.819Z,0
2017-03-16T04:17:52.730Z,0
2017-03-16T04:18:52.472Z,0
2017-03-16T04:19:52.471Z,0
2017-03-16T04:20:52.443Z,0
2017-03-16T04:21:52.224Z,0
2017-03-16T04:22:52.753Z,0
2017-03-16T04:23:52.396Z,0
2017-03-16T04:24:52.502Z,0
2017-03-16T04:25:52.770Z,0
2017-03-16T04:26:52.928Z,0
2017-03-16T04:27:53.014Z,0
2017-03-16T04:28:52.481Z,0
2017-03-16T04:29:52.431Z,0
2017-03-16T04:30:52.121Z,0
2017-03-16T04:31:52.887Z,0
2017-03-16T04:32:52.545Z,0
2017-03-16T04:33:52.860Z,0
2017-03-16T04:34:52.922Z,0
2017-03-16T04:35:52.461Z,0
2017-03-16T04:36:52.525Z,0
2017-03-16T04:37:52.323Z,0
2017-03-16T04:38:52.849Z,0
2017-03-16T04:39:52.844Z,0
2017-03-16T04:40:52.811Z,0
2017-03-16T04:41:52.596Z,0
2017-03-16T04:42:52.881Z,0
2017-03-16T04:43:52.614Z,0
2017-03-16T04:44:52.920Z,0
2017-03-16T04:45:52.886Z,0
2017-03-16T04:46:52.527Z,0
2017-03-16T04:47:52.837Z,0
2017-03-16T04:48:52.945Z,0
2017-03-16T04:49:52.903Z,0
2017-03-16T04:50:53.004Z,0
2017-03-16T04:51:52.960Z,0
2017-03-16T04:52:52.611Z,0
2017-03-16T04:53:52.922Z,0
2017-03-16T04:54:52.578Z,0
2017-03-16T04:55:52.931Z,0
2017-03-16T04:56:52.990Z,0
2017-03-16T04:57:52.993Z,0
2017-03-16T04:58:52.734Z,0
2017-03-16T04:59:52.651Z,0
2017-03-16T05:00:52.909Z,0
2017-03-16T05:01:52.964Z,0
2017-03-16T05:02:52.975Z,0
2017-03-16T05:03:52.604Z,0
2017-03-16T05:04:52.678Z,0
2017-03-16T05:05:52.685Z,0
2017-03-16T05:06:52.980Z,0
2017-03-16T05:07:52.949Z,0
2017-03-16T05:08:52.641Z,0
2017-03-16T05:09:53.115Z,0
2017-03-16T05:10:52.669Z,0
2017-03-16T05:11:53.068Z,0
2017-03-16T05:12:53.014Z,0
2017-03-16T05:13:53.031Z,0
2017-03-16T05:14:52.732Z,0
2017-03-16T05:15:53.444Z,0
2017-03-16T05:16:53.001Z,0
2017-03-16T05:17:52.745Z,0
2017-03-16T05:18:52.746Z,0
2017-03-16T05:19:52.800Z,0
2017-03-16T05:20:52.756Z,0
2017-03-16T05:21:53.074Z,0
2017-03-16T05:22:53.150Z,0
2017-03-16T05:23:52.827Z,0
2017-03-16T05:24:53.140Z,0
2017-03-16T05:25:53.204Z,0
2017-03-16T05:26:52.427Z,0
2017-03-16T05:27:52.436Z,0
2017-03-16T05:28:52.811Z,0
2017-03-16T05:29:53.119Z,0
2017-03-16T05:30:52.812Z,0
2017-03-16T05:31:53.126Z,0
2017-03-16T05:32:53.894Z,0
2017-03-16T05:33:53.143Z,0
2017-03-16T05:34:53.104Z,0
2017-03-16T05:35:53.150Z,0
2017-03-16T05:36:53.206Z,0
2017-03-16T05:37:52.804Z,0
2017-03-16T05:38:52.862Z,0
2017-03-16T05:39:53.157Z,0
2017-03-16T05:40:53.128Z,0
2017-03-16T05:41:52.606Z,0
2017-03-16T05:42:52.834Z,0
2017-03-16T05:43:52.605Z,0
2017-03-16T05:44:53.205Z,0
2017-03-16T05:45:52.577Z,0
2017-03-16T05:46:53.183Z,0
2017-03-16T05:47:52.895Z,5
2017-03-16T05:48:52.911Z,5
2017-03-16T05:49:53.227Z,5
2017-03-16T05:50:52.871Z,5
2017-03-16T05:51:52.683Z,5
2017-03-16T05:52:53.345Z,5
2017-03-16T05:53:53.090Z,5
2017-03-16T05:54:52.896Z,5
2017-03-16T05:55:52.736Z,5
2017-03-16T05:56:53.319Z,5
2017-03-16T05:57:53.452Z,10
2017-03-16T05:58:53.227Z,10
2017-03-16T05:59:53.019Z,10
2017-03-16T06:00:52.981Z,10
2017-03-16T06:01:53.041Z,10
2017-03-16T06:02:52.986Z,10
2017-03-16T06:03:53.308Z,10
2017-03-16T06:04:52.949Z,15
2017-03-16T06:05:53.048Z,15
2017-03-16T06:06:53.269Z,15
2017-03-16T06:07:53.376Z,15
2017-03-16T06:08:53.388Z,15
2017-03-16T06:09:53.027Z,15
2017-03-16T06:10:53.389Z,15
2017-03-16T06:11:53.441Z,20
2017-03-16T06:12:53.355Z,20
2017-03-16T06:13:53.314Z,20
2017-03-16T06:14:52.738Z,20
2017-03-16T06:15:53.370Z,20
2017-03-16T06:16:53.521Z,20
2017-03-16T06:17:53.122Z,20
2017-03-16T06:18:53.037Z,25
2017-03-16T06:19:53.132Z,25
2017-03-16T06:20:53.080Z,25
2017-03-16T06:21:52.835Z,25
2017-03-16T06:22:52.887Z,25
2017-03-16T06:23:53.454Z,25
2017-03-16T06:24:53.054Z,30
2017-03-16T06:25:52.854Z,30
2017-03-16T06:26:53.510Z,35
2017-03-16T06:27:53.444Z,35
2017-03-16T06:28:53.186Z,35
2017-03-16T06:29:53.187Z,40
2017-03-16T06:30:53.552Z,45
2017-03-16T06:31:53.472Z,50
2017-03-16T06:32:52.791Z,55
2017-03-16T06:33:53.215Z,45
2017-03-16T06:34:53.425Z,40
2017-03-16T06:35:53.478Z,40
2017-03-16T06:36:53.126Z,40
2017-03-16T06:37:53.548Z,40
2017-03-16T06:38:53.756Z,40
2017-03-16T06:39:53.139Z,40
2017-03-16T06:40:53.246Z,40
2017-03-16T06:41:53.202Z,40
2017-03-16T06:42:53.620Z,40
2017-03-16T06:43:53.532Z,40
2017-03-16T06:44:53.303Z,40
2017-03-16T06:45:53.220Z,40
2017-03-16T06:46:52.921Z,40
2017-03-16T06:47:53.190Z,45
2017-03-16T06:48:53.303Z,45
2017-03-16T06:49:53.561Z,45
2017-03-16T06:50:53.565Z,45
2017-03-16T06:51:53.630Z,45
2017-03-16T06:52:53.585Z,45
2017-03-16T06:53:53.588Z,45
2017-03-16T06:54:53.014Z,45
2017-03-16T06:55:52.659Z,50
2017-03-16T06:56:53.647Z,50
2017-03-16T06:57:53.348Z,50
2017-03-16T06:58:53.298Z,50
2017-03-16T06:59:53.320Z,50
2017-03-16T07:00:53.311Z,50
2017-03-16T07:01:53.628Z,50
2017-03-16T07:02:53.323Z,50
2017-03-16T07:03:53.018Z,50
2017-03-16T07:04:53.284Z,50
2017-03-16T07:05:53.397Z,50
2017-03-16T07:06:53.657Z,55
2017-03-16T07:07:53.350Z,55
2017-03-16T07:08:53.772Z,55
2017-03-16T07:09:53.052Z,55
2017-03-16T07:10:53.464Z,55
2017-03-16T07:11:53.423Z,55
2017-03-16T07:12:54.481Z,55
2017-03-16T07:13:53.750Z,55
2017-03-16T07:14:53.399Z,55
2017-03-16T07:15:53.343Z,55
2017-03-16T07:16:52.769Z,55
2017-03-16T07:17:53.405Z,55
2017-03-16T07:18:53.726Z,55
2017-03-16T07:19:53.371Z,55
2017-03-16T07:20:53.737Z,55
2017-03-16T07:21:53.433Z,55
2017-03-16T07:22:53.453Z,55
2017-03-16T07:23:53.809Z,55
2017-03-16T07:24:53.760Z,55
2017-03-16T07:25:53.767Z,60
2017-03-16T07:26:53.767Z,60
2017-03-16T07:27:53.520Z,60
2017-03-16T07:28:53.783Z,60
2017-03-16T07:29:53.167Z,60
2017-03-16T07:30:53.529Z,60
2017-03-16T07:31:53.755Z,60
2017-03-16T07:32:53.499Z,60
2017-03-16T07:33:53.815Z,60
2017-03-16T07:34:53.553Z,60
2017-03-16T07:35:53.510Z,60
2017-03-16T07:36:53.931Z,60
2017-03-16T07:37:53.467Z,60
2017-03-16T07:38:53.532Z,65
2017-03-16T07:39:53.851Z,65
2017-03-16T07:40:53.954Z,65
2017-03-16T07:41:53.545Z,65
2017-03-16T07:42:53.558Z,65
2017-03-16T07:43:53.825Z,65
2017-03-16T07:44:54.682Z,65
2017-03-16T07:45:53.257Z,65
2017-03-16T07:46:53.624Z,65
2017-03-16T07:47:53.885Z,65
2017-03-16T07:48:53.896Z,70
2017-03-16T07:49:53.592Z,70
2017-03-16T07:50:53.865Z,70
2017-03-16T07:51:53.660Z,70
2017-03-16T07:52:54.452Z,70
2017-03-16T07:53:53.672Z,70
2017-03-16T07:54:53.941Z,70
2017-03-16T07:55:53.628Z,70
2017-03-16T07:56:53.587Z,70
2017-03-16T07:57:53.913Z,70
2017-03-16T07:58:53.967Z,70
2017-03-16T07:59:53.973Z,75
2017-03-16T08:00:53.928Z,75
2017-03-16T08:01:54.026Z,75
2017-03-16T08:02:53.780Z,75
2017-03-16T08:03:53.994Z,75
2017-03-16T08:04:53.735Z,75
2017-03-16T08:05:54.006Z,75
2017-03-16T08:06:53.961Z,80
2017-03-16T08:07:53.711Z,80
2017-03-16T08:08:54.078Z,80
2017-03-16T08:09:53.405Z,80
2017-03-16T08:10:53.675Z,80
2017-03-16T08:11:53.680Z,80
2017-03-16T08:12:54.052Z,80
2017-03-16T08:13:53.381Z,80
2017-03-16T08:14:54.117Z,85
2017-03-16T08:15:53.841Z,95
2017-03-16T08:16:54.173Z,100
2017-03-16T08:17:53.823Z,270
2017-03-16T08:18:53.157Z,535
2017-03-16T08:19:53.471Z,645
2017-03-16T08:20:53.839Z,640
2017-03-16T08:21:54.112Z,655
2017-03-16T08:22:53.815Z,585
2017-03-16T08:23:54.175Z,585
2017-03-16T08:24:54.089Z,615
2017-03-16T08:25:53.878Z,660
2017-03-16T08:26:54.210Z,650
2017-03-16T08:27:53.854Z,655
2017-03-16T08:28:54.169Z,645
2017-03-16T08:29:54.181Z,635
2017-03-16T08:30:54.346Z,610
2017-03-16T08:31:53.892Z,630
2017-03-16T08:32:53.905Z,650
2017-03-16T08:33:53.957Z,670
2017-03-16T08:34:53.920Z,675
2017-03-16T08:35:54.200Z,665
2017-03-16T08:36:53.692Z,665
2017-03-16T08:37:54.264Z,695
2017-03-16T08:38:53.441Z,640
2017-03-16T08:39:54.340Z,660
2017-03-16T08:40:54.037Z,695
2017-03-16T08:41:54.259Z,680
2017-03-16T08:42:54.095Z,690
2017-03-16T08:43:54.332Z,695
2017-03-16T08:44:53.977Z,725
2017-03-16T08:45:54.363Z,730
2017-03-16T08:46:54.109Z,705
2017-03-16T08:47:54.012Z,665
2017-03-16T08:48:54.465Z,700
2017-03-16T08:49:54.091Z,745
2017-03-16T08:50:54.101Z,735
2017-03-16T08:51:53.763Z,745
2017-03-16T08:52:54.631Z,765
2017-03-16T08:53:54.496Z,730
2017-03-16T08:54:54.557Z,720
2017-03-16T08:55:54.156Z,755
2017-03-16T08:56:54.478Z,800
2017-03-16T08:57:53.860Z,815
2017-03-16T08:58:54.667Z,750
2017-03-16T08:59:54.560Z,675
2017-03-16T09:00:54.584Z,705
2017-03-16T09:01:54.226Z,795
2017-03-16T09:02:54.292Z,835
2017-03-16T09:03:53.882Z,850
2017-03-16T09:04:54.267Z,820
2017-03-16T09:05:54.587Z,720
2017-03-16T09:06:54.386Z,685
2017-03-16T09:07:54.350Z,765
2017-03-16T09:08:54.355Z,780
2017-03-16T09:09:54.587Z,760
2017-03-16T09:10:54.646Z,755
2017-03-16T09:11:54.397Z,800
2017-03-16T09:12:54.359Z,840
2017-03-16T09:13:54.010Z,775
2017-03-16T09:14:54.407Z,470
2017-03-16T09:15:54.343Z,175
2017-03-16T09:16:54.667Z,130
2017-03-16T09:17:54.781Z,120
2017-03-16T09:18:54.531Z,115
2017-03-16T09:19:54.476Z,115
2017-03-16T09:20:54.497Z,115
2017-03-16T09:21:54.766Z,115
2017-03-16T09:22:54.735Z,115
2017-03-16T09:23:53.801Z,110
2017-03-16T09:24:54.791Z,110
2017-03-16T09:25:54.648Z,110
2017-03-16T09:26:54.864Z,110
2017-03-16T09:27:54.147Z,110
2017-03-16T09:28:54.783Z,105
2017-03-16T09:29:54.845Z,105
2017-03-16T09:30:54.253Z,105
2017-03-16T09:31:54.233Z,105
2017-03-16T09:32:54.552Z,105
2017-03-16T09:33:54.973Z,105
2017-03-16T09:34:54.818Z,105
2017-03-16T09:35:54.970Z,105
2017-03-16T09:36:55.003Z,105
2017-03-16T09:37:54.331Z,105
2017-03-16T09:38:54.700Z,100
2017-03-16T09:39:54.873Z,100
2017-03-16T09:40:54.669Z,100
2017-03-16T09:41:54.574Z,100
2017-03-16T09:42:54.677Z,95
2017-03-16T09:43:55.048Z,95
2017-03-16T09:44:54.383Z,95
2017-03-16T09:45:54.390Z,90
2017-03-16T09:46:54.347Z,90
2017-03-16T09:47:54.931Z,90
2017-03-16T09:48:54.311Z,90
2017-03-16T09:49:55.040Z,95
2017-03-16T09:50:54.640Z,95
2017-03-16T09:51:55.115Z,95
2017-03-16T09:52:55.015Z,90
2017-03-16T09:53:55.022Z,90
2017-03-16T09:54:55.029Z,90
2017-03-16T09:55:54.673Z,90
2017-03-16T09:56:54.780Z,90
2017-03-16T09:57:55.051Z,90
2017-03-16T09:58:54.742Z,90
2017-03-16T09:59:55.071Z,90
2017-03-16T10:00:55.121Z,90
2017-03-16T10:01:55.147Z,90
2017-03-16T10:02:55.033Z,90
2017-03-16T10:03:55.041Z,90
2017-03-16T10:04:55.097Z,85
2017-03-16T10:05:54.743Z,85
2017-03-16T10:06:55.162Z,90
2017-03-16T10:07:55.703Z,90
2017-03-16T10:08:55.222Z,90
2017-03-16T10:09:55.180Z,85
2017-03-16T10:10:54.463Z,85
2017-03-16T10:11:55.081Z,85
2017-03-16T10:12:54.789Z,85
2017-03-16T10:13:54.795Z,85
2017-03-16T10:14:54.642Z,85
2017-03-16T10:15:54.859Z,85
2017-03-16T10:16:54.963Z,85
2017-03-16T10:17:54.251Z,85
2017-03-16T10:18:55.242Z,85
2017-03-16T10:19:54.834Z,85
2017-03-16T10:20:55.252Z,85
2017-03-16T10:21:55.264Z,85
2017-03-16T10:22:55.217Z,85
2017-03-16T10:23:54.908Z,85
2017-03-16T10:24:55.281Z,85
2017-03-16T10:25:54.659Z,85
2017-03-16T10:26:55.195Z,85
2017-03-16T10:27:54.985Z,80
2017-03-16T10:28:55.363Z,85
2017-03-16T10:29:54.644Z,85
2017-03-16T10:30:55.010Z,85
2017-03-16T10:31:55.328Z,85
2017-03-16T10:32:55.284Z,85
2017-03-16T10:33:54.976Z,85
2017-03-16T10:34:55.349Z,85
2017-03-16T10:35:55.037Z,80
2017-03-16T10:36:54.998Z,80
2017-03-16T10:37:55.000Z,80
2017-03-16T10:38:55.367Z,80
2017-03-16T10:39:55.065Z,80
2017-03-16T10:40:55.335Z,80
2017-03-16T10:41:55.346Z,80
2017-03-16T10:42:55.345Z,80
2017-03-16T10:43:55.040Z,80
2017-03-16T10:44:55.045Z,80
2017-03-16T10:45:55.368Z,80
2017-03-16T10:46:55.374Z,80
2017-03-16T10:47:54.803Z,80
2017-03-16T10:48:55.681Z,80
2017-03-16T10:49:55.131Z,80
2017-03-16T10:50:55.084Z,80
2017-03-16T10:51:55.400Z,80
2017-03-16T10:52:55.044Z,80
2017-03-16T10:53:55.560Z,80
2017-03-16T10:54:55.417Z,75
2017-03-16T10:55:57.105Z,75
2017-03-16T10:56:55.118Z,75
2017-03-16T10:57:55.491Z,70
2017-03-16T10:58:55.402Z,75
2017-03-16T10:59:55.087Z,75
2017-03-16T11:00:54.474Z,75
2017-03-16T11:01:56.438Z,75
2017-03-16T11:02:55.566Z,75
2017-03-16T11:03:55.475Z,75
2017-03-16T11:04:55.224Z,75
2017-03-16T11:05:55.493Z,75
2017-03-16T11:06:55.546Z,75
2017-03-16T11:07:55.435Z,75
2017-03-16T11:08:55.318Z,70
2017-03-16T11:09:55.201Z,70
2017-03-16T11:10:55.156Z,70
2017-03-16T11:11:55.161Z,70
2017-03-16T11:12:55.529Z,70
2017-03-16T11:13:55.689Z,70
2017-03-16T11:14:55.230Z,70
2017-03-16T11:15:55.287Z,70
2017-03-16T11:16:55.343Z,70
2017-03-16T11:17:54.980Z,70
2017-03-16T11:18:55.263Z,65
2017-03-16T11:19:55.318Z,70
2017-03-16T11:20:55.366Z,70
2017-03-16T11:21:56.048Z,65
2017-03-16T11:22:55.542Z,65
2017-03-16T11:23:54.972Z,65
2017-03-16T11:24:54.976Z,65
2017-03-16T11:25:54.982Z,65
2017-03-16T11:26:55.718Z,65
2017-03-16T11:27:55.357Z,65
2017-03-16T11:28:55.265Z,65
2017-03-16T11:29:55.061Z,60
2017-03-16T11:30:55.590Z,60
2017-03-16T11:31:55.945Z,60
2017-03-16T11:32:55.654Z,60
2017-03-16T11:33:55.397Z,60
2017-03-16T11:34:55.665Z,60
2017-03-16T11:35:55.459Z,65
2017-03-16T11:36:55.676Z,65
2017-03-16T11:37:56.037Z,65
2017-03-16T11:38:55.370Z,65
2017-03-16T11:39:55.743Z,65
2017-03-16T11:40:55.439Z,65
2017-03-16T11:41:55.127Z,60
2017-03-16T11:42:55.706Z,65
2017-03-16T11:43:55.667Z,65
2017-03-16T11:44:55.407Z,65
2017-03-16T11:45:55.782Z,60
2017-03-16T11:46:57.022Z,60
2017-03-16T11:47:55.738Z,60
2017-03-16T11:48:55.381Z,60
2017-03-16T11:49:57.098Z,60
2017-03-16T11:50:55.446Z,60
2017-03-16T11:51:55.766Z,60
2017-03-16T11:52:55.773Z,60
2017-03-16T11:53:55.713Z,60
2017-03-16T11:54:55.742Z,60
2017-03-16T11:55:55.899Z,60
2017-03-16T11:56:55.533Z,60
2017-03-16T11:57:55.851Z,60
2017-03-16T11:58:55.545Z,60
2017-03-16T11:59:55.555Z,60
2017-03-16T12:00:55.868Z,60
2017-03-16T12:01:56.226Z,60
2017-03-16T12:02:55.783Z,60
2017-03-16T12:03:55.938Z,60
2017-03-16T12:04:55.804Z,60
2017-03-16T12:05:55.858Z,60
2017-03-16T12:06:55.958Z,60
2017-03-16T12:07:55.551Z,60
2017-03-16T12:08:55.819Z,60
2017-03-16T12:09:55.614Z,55
2017-03-16T12:10:55.620Z,55
2017-03-16T12:11:55.883Z,55
2017-03-16T12:12:55.944Z,55
2017-03-16T12:13:55.852Z,55
2017-03-16T12:14:55.904Z,55
2017-03-16T12:15:56.031Z,55
2017-03-16T12:16:55.966Z,55
2017-03-16T12:17:55.971Z,55
2017-03-16T12:18:55.718Z,55
2017-03-16T12:19:55.582Z,55
2017-03-16T12:20:54.951Z,55
2017-03-16T12:21:55.063Z,55
2017-03-16T12:22:56.847Z,55
2017-03-16T12:23:55.067Z,55
2017-03-16T12:24:55.653Z,50
2017-03-16T12:25:55.927Z,50
2017-03-16T12:26:55.981Z,50
2017-03-16T12:27:55.615Z,50
2017-03-16T12:28:56.035Z,50
2017-03-16T12:29:56.093Z,50
2017-03-16T12:30:55.965Z,50
2017-03-16T12:31:55.644Z,50
2017-03-16T12:32:56.010Z,50
2017-03-16T12:33:55.854Z,50
2017-03-16T12:34:55.707Z,50
2017-03-16T12:35:55.714Z,50
2017-03-16T12:36:55.361Z,50
2017-03-16T12:37:56.046Z,50
2017-03-16T12:38:55.993Z,50
2017-03-16T12:39:56.056Z,50
2017-03-16T12:40:56.014Z,50
2017-03-16T12:41:55.762Z,50
2017-03-16T12:42:56.085Z,50
2017-03-16T12:43:56.193Z,50
2017-03-16T12:44:55.725Z,50
2017-03-16T12:45:55.831Z,50
2017-03-16T12:46:55.831Z,50
2017-03-16T12:47:56.157Z,45
2017-03-16T12:48:55.842Z,45
2017-03-16T12:49:56.168Z,45
2017-03-16T12:50:55.853Z,45
2017-03-16T12:51:56.085Z,45
2017-03-16T12:52:56.096Z,45
2017-03-16T12:53:55.250Z,45
2017-03-16T12:54:56.720Z,45
2017-03-16T12:55:56.217Z,45
2017-03-16T12:56:56.113Z,45
2017-03-16T12:57:55.857Z,50
2017-03-16T12:58:56.219Z,50
2017-03-16T12:59:56.137Z,50
2017-03-16T13:00:55.191Z,50
2017-03-16T13:01:56.191Z,50
2017-03-16T13:02:56.196Z,50
2017-03-16T13:03:55.884Z,50
2017-03-16T13:04:56.305Z,50
2017-03-16T13:05:55.852Z,50
2017-03-16T13:06:55.912Z,50
2017-03-16T13:07:55.652Z,50
2017-03-16T13:08:55.867Z,50
2017-03-16T13:09:55.573Z,55
2017-03-16T13:10:56.120Z,70
2017-03-16T13:11:55.885Z,90
2017-03-16T13:12:55.992Z,105
2017-03-16T13:13:56.257Z,135
2017-03-16T13:14:55.952Z,105
2017-03-16T13:15:56.327Z,95
2017-03-16T13:16:56.069Z,170
2017-03-16T13:17:56.334Z,345
2017-03-16T13:18:55.615Z,210
2017-03-16T13:19:56.039Z,110
2017-03-16T13:20:56.000Z,130
2017-03-16T13:21:56.100Z,140
2017-03-16T13:22:55.382Z,150
2017-03-16T13:23:56.329Z,110
2017-03-16T13:24:56.379Z,175
2017-03-16T13:25:56.349Z,330
2017-03-16T13:26:55.508Z,205
2017-03-16T13:27:56.040Z,115
2017-03-16T13:28:56.357Z,110
2017-03-16T13:29:56.373Z,105
2017-03-16T13:30:56.326Z,135
2017-03-16T13:31:56.434Z,185
2017-03-16T13:32:56.337Z,150
2017-03-16T13:33:56.131Z,80
2017-03-16T13:34:56.449Z,120
2017-03-16T13:35:56.405Z,165
2017-03-16T13:36:56.551Z,125
2017-03-16T13:37:56.368Z,110
2017-03-16T13:38:56.382Z,90
2017-03-16T13:39:56.426Z,60
2017-03-16T13:40:56.225Z,50
2017-03-16T13:41:55.919Z,50
2017-03-16T13:42:56.455Z,45
2017-03-16T13:43:56.406Z,45
2017-03-16T13:44:56.419Z,45
2017-03-16T13:45:56.482Z,45
2017-03-16T13:46:56.167Z,45
2017-03-16T13:47:55.909Z,45
2017-03-16T13:48:56.438Z,45
2017-03-16T13:49:56.451Z,45
2017-03-16T13:50:56.191Z,45
2017-03-16T13:51:56.445Z,45
2017-03-16T13:52:56.160Z,45
2017-03-16T13:53:56.522Z,45
2017-03-16T13:54:56.163Z,45
2017-03-16T13:55:56.230Z,45
2017-03-16T13:56:56.275Z,40
2017-03-16T13:57:56.183Z,45
2017-03-16T13:58:56.298Z,40
2017-03-16T13:59:56.258Z,45
2017-03-16T14:00:56.615Z,45
2017-03-16T14:01:56.620Z,40
2017-03-16T14:02:56.671Z,40
2017-03-16T14:03:56.267Z,40
2017-03-16T14:04:56.634Z,40
2017-03-16T14:05:56.645Z,40
2017-03-16T14:06:56.342Z,40
2017-03-16T14:07:56.032Z,40
2017-03-16T14:08:55.978Z,40
2017-03-16T14:09:56.262Z,40
2017-03-16T14:10:56.002Z,40
2017-03-16T14:11:56.685Z,40
2017-03-16T14:12:56.596Z,40
2017-03-16T14:13:56.642Z,40
2017-03-16T14:14:56.650Z,40
2017-03-16T14:15:56.294Z,40
2017-03-16T14:16:56.350Z,40
2017-03-16T14:17:55.988Z,40
2017-03-16T14:18:56.977Z,40
2017-03-16T14:19:56.173Z,40
2017-03-16T14:20:58.339Z,40
2017-03-16T14:21:56.743Z,40
2017-03-16T14:22:56.996Z,40
2017-03-16T14:23:56.392Z,40
2017-03-16T14:24:56.660Z,40